Terminal Aerodrome Forecast
Issued by NWS

Home | Current Version | Previous Version | Text Only | Print | Product List | Glossary On
Versions: 1 2 3 4 5 6 7 8 9 10 11 12 13 14 15 16 17 18 19 20 21 22 23 24 25 26 27 28
000
FTUS43 KDDC 311431 AAB
TAFHYS
TAF AMD
KHYS 311431Z 3115/0112 15008KT 4SM BR OVC008
      TEMPO 3115/3117 2SM -RA BR OVC004
     FM311800 19015G25KT 6SM BR OVC010
     FM312300 17010KT 5SM BR OVC006
      TEMPO 0101/0105 1SM -RA BR OVC003=

USA.gov is the U.S. government's official web portal to all federal, state and local government web resources and services.